Time;durP1;ratioP1;P1;durP2;ratioP2;P2;SDS_P1;SDS_P2;PMS_P1;PMS_P2;Temp;Humidity;BMP_temperature;BMP_pressure;BME280_temperature;BME280_humidity;BME280_pressure;Samples;Min_cycle;Max_cycle;Signal;HPM_P1;HPM_P2
2022/08/24 00:00:17;;;;;;;68.88;53.47;;;19.90;99.90;;;;;;5013987;28;20512;-74
2022/08/24 00:02:43;;;;;;;66.85;52.25;;;19.80;99.90;;;;;;5012138;28;20049;-74
2022/08/24 00:05:10;;;;;;;65.22;52.35;;;19.80;99.90;;;;;;5031671;28;20056;-74
2022/08/24 00:07:36;;;;;;;63.92;51.58;;;19.70;99.90;;;;;;5031426;28;20052;-75
2022/08/24 00:10:05;;;;;;;69.22;55.83;;;19.70;99.90;;;;;;5029890;28;20092;-74
2022/08/24 00:12:31;;;;;;;71.10;56.25;;;19.60;99.90;;;;;;5019436;28;20087;-74
2022/08/24 00:14:58;;;;;;;71.43;56.15;;;19.50;99.90;;;;;;5007690;28;20051;-74
2022/08/24 00:17:24;;;;;;;79.28;58.08;;;19.40;99.90;;;;;;5014135;28;20041;-74
2022/08/24 00:19:50;;;;;;;74.18;58.13;;;19.40;99.90;;;;;;5025016;28;20500;-74
2022/08/24 00:22:16;;;;;;;77.63;58.85;;;19.30;99.90;;;;;;4991778;28;20072;-74
2022/08/24 00:24:43;;;;;;;66.45;52.80;;;19.30;99.90;;;;;;5023444;28;20037;-74
2022/08/24 00:27:10;;;;;;;66.28;51.97;;;19.30;99.90;;;;;;5012572;28;20529;-74
2022/08/24 00:29:36;;;;;;;64.30;51.55;;;19.20;99.90;;;;;;5012467;28;20081;-75
2022/08/24 00:32:02;;;;;;;67.93;53.22;;;19.20;99.90;;;;;;5023805;28;20041;-75
2022/08/24 00:34:28;;;;;;;60.95;49.65;;;19.10;99.90;;;;;;5027115;28;20809;-75
2022/08/24 00:36:54;;;;;;;68.32;54.15;;;19.10;99.90;;;;;;5045612;28;20128;-75
2022/08/24 00:39:20;;;;;;;76.32;60.70;;;19.10;99.90;;;;;;5031427;28;20120;-75
2022/08/24 00:41:48;;;;;;;67.97;53.95;;;19.20;99.90;;;;;;5013834;28;20095;-75
2022/08/24 00:44:15;;;;;;;75.03;57.75;;;19.20;99.90;;;;;;5031226;28;20059;-75
2022/08/24 00:46:57;;;;;;;65.20;52.70;;;19.20;99.90;;;;;;5029839;28;20045;-75
2022/08/24 00:49:36;;;;;;;73.97;55.20;;;19.20;99.90;;;;;;5014975;28;20057;-75
2022/08/24 00:52:28;;;;;;;65.25;52.15;;;19.20;99.90;;;;;;5014195;28;20363;-74
2022/08/24 00:55:16;;;;;;;56.65;46.97;;;19.20;99.90;;;;;;5026642;28;20783;-75
2022/08/24 00:57:45;;;;;;;63.38;51.42;;;19.20;99.90;;;;;;5009397;28;20053;-75
2022/08/24 01:00:19;;;;;;;70.07;53.55;;;19.10;99.90;;;;;;5010534;28;20398;-75
2022/08/24 01:02:48;;;;;;;69.80;54.17;;;19.00;99.90;;;;;;4994615;28;20058;-75
2022/08/24 01:05:17;;;;;;;71.13;53.10;;;18.90;99.90;;;;;;5011728;28;20092;-75
2022/08/24 01:07:49;;;;;;;70.53;56.22;;;18.70;99.90;;;;;;5026131;28;20131;-75
2022/08/24 01:10:26;;;;;;;;;;;18.70;99.90;;;;;;5031600;28;20152;-74
2022/08/24 01:12:57;;;;;;;69.85;56.08;;;18.60;99.90;;;;;;5029266;28;20363;-74
2022/08/24 01:15:23;;;;;;;78.72;58.40;;;18.60;99.90;;;;;;5026942;28;20042;-75
2022/08/24 01:20:35;;;;;;;79.68;58.80;;;18.60;99.90;;;;;;5030390;28;20049;-74
2022/08/24 01:23:33;;;;;;;69.35;52.53;;;18.60;99.90;;;;;;5018584;28;20482;-75
2022/08/24 01:25:59;;;;;;;70.82;54.95;;;18.50;99.90;;;;;;5018618;28;20048;-75
2022/08/24 01:28:26;;;;;;;64.10;49.88;;;18.50;99.90;;;;;;4998543;28;20041;-75
2022/08/24 01:30:51;;;;;;;79.45;58.15;;;18.50;99.90;;;;;;5034843;28;20041;-75
2022/08/24 01:33:27;;;;;;;80.32;58.13;;;18.50;99.90;;;;;;5018407;28;20045;-75
2022/08/24 01:36:21;;;;;;;81.88;59.80;;;18.50;99.90;;;;;;5033922;28;20045;-75
2022/08/24 01:38:48;;;;;;;76.35;56.85;;;18.50;99.90;;;;;;5032747;28;20045;-75
2022/08/24 01:41:14;;;;;;;291.08;55.95;;;18.40;99.90;;;;;;5032860;28;20068;-76
2022/08/24 01:43:40;;;;;;;73.15;53.63;;;18.40;99.90;;;;;;5015199;28;20041;-74
2022/08/24 01:46:06;;;;;;;64.38;51.25;;;18.30;99.90;;;;;;5014208;28;20041;-74
2022/08/24 01:48:32;;;;;;;49.85;41.95;;;18.30;99.90;;;;;;5028832;28;20092;-74
2022/08/24 01:50:58;;;;;;;808.20;51.00;;;18.30;99.90;;;;;;5025054;28;20037;-74
2022/08/24 01:53:25;;;;;;;219.45;45.17;;;18.20;99.90;;;;;;5018009;28;20041;-74
2022/08/24 01:55:50;;;;;;;68.38;49.80;;;18.10;99.90;;;;;;5017380;28;20482;-75
2022/08/24 01:58:16;;;;;;;83.13;57.72;;;18.00;99.90;;;;;;5033847;28;20045;-74
2022/08/24 02:00:43;;;;;;;87.25;60.22;;;18.00;99.90;;;;;;5033885;28;20073;-75
2022/08/24 02:03:10;;;;;;;83.57;59.20;;;18.00;99.90;;;;;;5049275;28;20053;-74
2022/08/24 02:05:36;;;;;;;70.93;54.58;;;18.00;99.90;;;;;;5034032;28;20041;-74
2022/08/24 02:08:02;;;;;;;65.50;52.20;;;18.00;99.90;;;;;;5033635;28;20037;-74
2022/08/24 02:10:29;;;;;;;87.47;54.42;;;18.00;99.90;;;;;;5015765;28;20044;-75
2022/08/24 02:12:56;;;;;;;499.67;62.63;;;18.00;99.90;;;;;;5032796;28;20056;-74
2022/08/24 02:15:36;;;;;;;72.63;52.05;;;17.90;99.90;;;;;;5033272;28;20033;-74
2022/08/24 02:18:03;;;;;;;77.05;54.53;;;17.90;99.90;;;;;;5029893;28;20056;-74
2022/08/24 02:20:29;;;;;;;80.47;56.88;;;17.80;99.90;;;;;;5032080;28;20386;-75
2022/08/24 02:22:56;;;;;;;77.00;56.50;;;17.80;99.90;;;;;;5034094;28;20050;-74
2022/08/24 02:25:22;;;;;;;76.38;55.47;;;17.80;99.90;;;;;;5029990;28;20037;-74
2022/08/24 02:27:49;;;;;;;85.63;60.35;;;17.90;99.90;;;;;;5017147;28;20442;-74
2022/08/24 02:30:16;;;;;;;85.38;58.47;;;17.90;99.90;;;;;;5031504;28;20124;-74
2022/08/24 02:32:42;;;;;;;81.53;58.17;;;17.90;99.90;;;;;;5030865;28;20378;-74
2022/08/24 02:35:09;;;;;;;84.28;59.63;;;17.90;99.90;;;;;;5030935;28;20045;-75
2022/08/24 02:37:35;;;;;;;71.25;43.55;;;17.90;99.90;;;;;;4999089;28;20060;-75
2022/08/24 02:40:02;;;;;;;59.08;37.78;;;17.80;99.90;;;;;;5030254;28;20474;-75
2022/08/24 02:42:29;;;;;;;58.58;46.13;;;17.70;99.90;;;;;;5032412;28;20067;-74
2022/08/24 02:44:54;;;;;;;76.10;54.05;;;17.70;99.90;;;;;;4999786;28;20069;-75
2022/08/24 02:47:20;;;;;;;71.63;52.75;;;17.70;99.90;;;;;;5029927;28;20045;-75
2022/08/24 02:49:47;;;;;;;73.82;54.70;;;17.70;99.90;;;;;;5044324;28;20881;-75
2022/08/24 02:52:13;;;;;;;73.63;54.42;;;17.70;99.90;;;;;;5033438;28;20125;-75
2022/08/24 02:54:40;;;;;;;75.35;56.30;;;17.60;99.90;;;;;;5031604;28;20046;-74
2022/08/24 02:57:06;;;;;;;75.95;55.97;;;17.60;99.90;;;;;;5015643;28;20037;-75
2022/08/24 02:59:32;;;;;;;132.13;57.28;;;17.60;99.90;;;;;;5016498;28;20512;-74
2022/08/24 03:01:58;;;;;;;112.47;49.58;;;17.60;99.90;;;;;;5025919;28;20045;-75
2022/08/24 03:04:24;;;;;;;77.55;53.10;;;17.60;99.90;;;;;;5032085;28;20416;-74
2022/08/24 03:06:51;;;;;;;70.93;51.58;;;17.50;99.90;;;;;;4994601;28;20045;-74
2022/08/24 03:09:17;;;;;;;72.45;51.83;;;17.50;99.90;;;;;;5016421;28;20045;-75
2022/08/24 03:11:43;;;;;;;75.20;53.83;;;17.50;99.90;;;;;;5031131;28;20128;-75
2022/08/24 03:14:10;;;;;;;58.45;43.40;;;17.50;99.90;;;;;;5028258;28;20046;-75
2022/08/24 03:16:37;;;;;;;59.85;43.88;;;17.40;99.90;;;;;;5017083;28;20128;-75
2022/08/24 03:19:03;;;;;;;58.03;43.90;;;17.40;99.90;;;;;;5030405;28;20155;-75
2022/08/24 03:21:29;;;;;;;63.13;46.78;;;17.30;99.90;;;;;;5013691;28;20397;-75
2022/08/24 03:23:55;;;;;;;81.22;50.75;;;17.30;99.90;;;;;;5029822;28;20038;-75
2022/08/24 03:26:21;;;;;;;78.50;54.90;;;17.20;99.90;;;;;;5030876;28;20051;-75
2022/08/24 03:28:48;;;;;;;81.95;56.53;;;17.20;99.90;;;;;;5012280;28;20111;-74
2022/08/24 03:31:14;;;;;;;75.60;52.25;;;17.20;99.90;;;;;;5014228;28;20478;-75
2022/08/24 03:33:40;;;;;;;83.10;56.78;;;17.20;99.90;;;;;;5030998;28;20048;-75
2022/08/24 03:36:07;;;;;;;74.65;52.78;;;17.20;99.90;;;;;;5047512;28;20033;-75
2022/08/24 03:38:32;;;;;;;30.48;26.75;;;17.30;99.90;;;;;;5029249;28;20533;-75
2022/08/24 03:40:59;;;;;;;37.53;30.35;;;17.20;99.90;;;;;;5031915;28;20041;-75
2022/08/24 03:46:10;;;;;;;69.65;48.80;;;17.10;99.90;;;;;;5016040;28;20041;-75
2022/08/24 03:48:38;;;;;;;56.33;43.33;;;17.10;99.90;;;;;;5015757;28;20382;-75
2022/08/24 03:51:12;;;;;;;45.75;33.72;;;17.10;99.90;;;;;;5031775;28;20551;-75
2022/08/24 03:53:38;;;;;;;50.60;38.08;;;17.00;99.90;;;;;;5031033;28;20041;-75
2022/08/24 03:56:04;;;;;;;49.28;38.15;;;17.00;99.90;;;;;;5031610;28;20128;-75
2022/08/24 03:58:30;;;;;;;68.03;48.65;;;16.90;99.90;;;;;;5032073;28;20096;-75
2022/08/24 04:00:58;;;;;;;82.38;54.40;;;16.90;99.90;;;;;;5031459;28;20255;-74
2022/08/24 04:03:24;;;;;;;77.28;53.15;;;17.00;99.90;;;;;;5015320;28;20482;-75
2022/08/24 04:05:50;;;;;;;83.00;55.03;;;17.00;99.90;;;;;;5031049;28;20129;-75
2022/08/24 04:08:16;;;;;;;94.68;56.40;;;17.00;99.90;;;;;;5031220;28;20045;-75
2022/08/24 04:10:45;;;;;;;129.20;45.83;;;17.10;99.90;;;;;;5015124;28;20080;-75
2022/08/24 04:13:11;;;;;;;423.48;70.72;;;17.00;99.90;;;;;;5031142;28;20037;-74
2022/08/24 04:15:42;;;;;;;275.40;61.47;;;17.00;99.90;;;;;;5030615;28;20041;-74
2022/08/24 04:18:08;;;;;;;164.25;60.40;;;17.00;99.90;;;;;;5027541;28;20153;-74
2022/08/24 04:20:39;;;;;;;93.70;55.80;;;17.00;99.90;;;;;;5028849;28;20041;-75
2022/08/24 04:23:06;;;;;;;;;;;17.00;99.90;;;;;;5014337;28;20463;-75
2022/08/24 04:25:41;;;;;;;86.47;54.72;;;17.00;99.90;;;;;;5030977;28;19917;-75
2022/08/24 04:28:08;;;;;;;114.65;58.58;;;16.90;99.90;;;;;;5014401;28;20041;-74
2022/08/24 04:30:33;;;;;;;100.75;55.25;;;17.00;99.90;;;;;;5014138;28;20574;-74
2022/08/24 04:32:59;;;;;;;134.65;53.25;;;17.00;99.90;;;;;;5012381;28;20127;-74
2022/08/24 04:35:25;;;;;;;59.38;44.58;;;17.00;99.90;;;;;;5014127;28;20068;-74
2022/08/24 04:37:51;;;;;;;55.75;42.90;;;16.90;99.90;;;;;;5013981;28;20049;-74
2022/08/24 04:40:17;;;;;;;61.45;44.50;;;16.90;99.90;;;;;;5013284;28;20049;-74
2022/08/24 04:42:43;;;;;;;66.18;47.58;;;16.90;99.90;;;;;;5008780;28;20041;-74
2022/08/24 04:45:09;;;;;;;55.80;42.60;;;16.90;99.90;;;;;;5011151;28;20037;-74
2022/08/24 04:47:34;;;;;;;62.80;46.60;;;17.00;99.90;;;;;;5014445;28;20128;-74
2022/08/24 04:50:00;;;;;;;58.60;44.78;;;16.90;99.90;;;;;;4997366;28;20176;-74
2022/08/24 04:52:27;;;;;;;76.00;51.60;;;17.00;99.90;;;;;;5012934;28;20183;-74
2022/08/24 04:54:53;;;;;;;76.63;52.22;;;17.00;99.90;;;;;;5024405;28;20037;-74
2022/08/24 04:57:19;;;;;;;530.33;73.63;;;17.00;99.90;;;;;;5046860;28;20470;-74
2022/08/24 04:59:46;;;;;;;72.82;50.65;;;17.00;99.90;;;;;;5014297;28;20046;-74
2022/08/24 05:02:14;;;;;;;79.38;53.65;;;17.00;99.90;;;;;;5029579;28;20053;-74
2022/08/24 05:04:40;;;;;;;81.78;54.47;;;17.00;99.90;;;;;;5002032;28;20049;-74
2022/08/24 05:07:07;;;;;;;81.07;54.03;;;17.10;99.90;;;;;;5028694;28;20049;-74
2022/08/24 05:09:32;;;;;;;61.67;45.13;;;17.20;99.90;;;;;;5027841;28;20482;-74
2022/08/24 05:11:58;;;;;;;62.95;46.72;;;17.20;99.90;;;;;;5030838;28;20052;-74
2022/08/24 05:14:26;;;;;;;66.65;49.67;;;17.20;99.90;;;;;;5014537;28;20051;-74
2022/08/24 05:16:52;;;;;;;65.78;49.05;;;17.30;99.90;;;;;;5013061;28;20076;-74
2022/08/24 05:19:18;;;;;;;65.95;52.33;;;17.30;99.90;;;;;;5031311;28;20434;-76
2022/08/24 05:21:43;;;;;;;70.53;51.72;;;17.30;99.90;;;;;;5047429;28;20045;-74
2022/08/24 05:24:09;;;;;;;90.82;57.30;;;17.40;99.90;;;;;;5031134;28;20505;-74
2022/08/24 05:26:36;;;;;;;84.57;56.00;;;17.40;99.90;;;;;;5014663;28;20044;-74
2022/08/24 05:29:02;;;;;;;75.78;53.35;;;17.50;99.90;;;;;;5027028;28;20477;-74
2022/08/24 05:31:30;;;;;;;71.07;52.13;;;17.60;99.90;;;;;;5024819;28;20385;-74
2022/08/24 05:33:57;;;;;;;67.38;50.78;;;17.70;99.90;;;;;;5029234;28;20048;-74
2022/08/24 05:36:36;;;;;;;71.38;50.35;;;17.70;99.90;;;;;;4996396;28;20053;-74
2022/08/24 05:39:06;;;;;;;67.57;50.47;;;17.80;99.90;;;;;;5014131;28;20515;-74
2022/08/24 05:41:33;;;;;;;69.80;52.03;;;17.90;99.90;;;;;;5028732;28;20138;-74
2022/08/24 05:43:59;;;;;;;67.75;49.67;;;18.00;99.90;;;;;;5010939;28;20064;-74
2022/08/24 05:46:26;;;;;;;73.88;53.88;;;18.10;99.90;;;;;;5006207;28;20114;-74
2022/08/24 05:48:53;;;;;;;68.20;51.53;;;18.20;99.90;;;;;;5013609;28;20470;-74
2022/08/24 05:51:20;;;;;;;67.88;50.83;;;18.30;99.90;;;;;;5030376;28;20037;-74
2022/08/24 05:53:46;;;;;;;78.10;54.72;;;18.50;99.90;;;;;;5009024;28;20409;-74
2022/08/24 05:56:14;;;;;;;85.57;59.45;;;18.60;99.90;;;;;;5028173;28;20041;-74
2022/08/24 05:58:40;;;;;;;81.35;57.22;;;18.70;99.90;;;;;;5029024;28;20121;-74
2022/08/24 06:01:19;;;;;;;84.07;58.15;;;18.80;99.90;;;;;;5030357;28;20485;-74
2022/08/24 06:03:46;;;;;;;87.80;58.50;;;18.90;99.90;;;;;;5029759;28;20056;-74
2022/08/24 06:06:13;;;;;;;74.78;54.38;;;19.00;99.90;;;;;;5014182;28;20042;-74
2022/08/24 06:08:44;;;;;;;83.45;58.45;;;19.10;99.90;;;;;;5017068;28;20049;-73
2022/08/24 06:11:11;;;;;;;;;;;19.20;99.90;;;;;;5018408;28;20121;-73
2022/08/24 06:13:37;;;;;;;83.93;58.78;;;19.30;99.90;;;;;;5050397;28;20380;-73
2022/08/24 06:16:10;;;;;;;81.53;59.63;;;19.40;99.90;;;;;;5034418;28;20095;-73
2022/08/24 06:18:37;;;;;;;90.43;60.92;;;19.50;99.90;;;;;;5033281;28;20444;-74
2022/08/24 06:21:09;;;;;;;88.85;61.75;;;19.60;99.90;;;;;;5034313;28;20045;-74
2022/08/24 06:23:36;;;;;;;81.20;58.65;;;19.70;99.90;;;;;;5017413;28;20045;-74
2022/08/24 06:28:48;;;;;;;91.03;56.85;;;19.90;99.90;;;;;;5034215;28;20124;-74
2022/08/24 06:31:14;;;;;;;99.30;61.42;;;20.00;99.90;;;;;;5033355;28;20562;-74
2022/08/24 06:33:40;;;;;;;83.57;57.00;;;20.10;99.90;;;;;;5032756;28;20037;-74
2022/08/24 06:36:06;;;;;;;90.90;58.97;;;20.20;99.90;;;;;;5033491;28;20378;-74
2022/08/24 06:38:32;;;;;;;85.32;60.95;;;20.40;99.90;;;;;;5050746;28;20049;-74
2022/08/24 06:40:58;;;;;;;88.95;59.50;;;20.50;99.90;;;;;;5033948;28;20099;-75
2022/08/24 06:43:25;;;;;;;91.38;60.97;;;20.60;99.90;;;;;;5032814;28;20049;-75
2022/08/24 06:45:53;;;;;;;89.95;62.10;;;20.80;99.90;;;;;;5030749;28;20041;-75
2022/08/24 06:48:20;;;;;;;90.22;61.10;;;20.90;99.90;;;;;;5033384;28;20041;-75
2022/08/24 06:50:46;;;;;;;93.60;66.72;;;21.00;99.90;;;;;;5012747;28;20505;-75
2022/08/24 06:53:15;;;;;;;89.25;64.72;;;21.20;99.90;;;;;;5033669;28;20045;-75
2022/08/24 06:55:51;;;;;;;92.55;65.30;;;21.40;99.90;;;;;;5016063;28;20049;-75
2022/08/24 06:58:18;;;;;;;90.20;66.43;;;21.60;99.90;;;;;;5033518;28;20448;-75
2022/08/24 07:00:45;;;;;;;92.10;64.63;;;21.80;99.90;;;;;;5016943;28;20136;-75
2022/08/24 07:03:11;;;;;;;82.30;61.25;;;21.90;99.90;;;;;;5032527;28;20049;-75
2022/08/24 07:05:37;;;;;;;81.05;58.85;;;22.00;99.90;;;;;;5032999;28;20537;-74
2022/08/24 07:08:04;;;;;;;82.00;61.25;;;22.10;99.90;;;;;;5016838;28;20037;-75
2022/08/24 07:10:30;;;;;;;79.00;59.00;;;22.30;99.90;;;;;;5033247;28;20124;-75
2022/08/24 07:12:56;;;;;;;82.65;58.65;;;22.40;99.90;;;;;;5016688;28;20611;-75
2022/08/24 07:15:23;;;;;;;76.13;56.47;;;22.50;99.90;;;;;;5033499;28;20060;-75
2022/08/24 07:17:50;;;;;;;79.97;58.20;;;22.60;99.90;;;;;;5027249;28;20406;-74
2022/08/24 07:20:16;;;;;;;71.93;55.60;;;22.70;99.90;;;;;;5029613;28;20493;-74
2022/08/24 07:22:43;;;;;;;67.30;54.33;;;22.80;99.90;;;;;;5032317;28;20098;-74
2022/08/24 07:25:11;;;;;;;72.10;55.17;;;22.90;99.90;;;;;;5032779;28;20044;-75
2022/08/24 07:27:38;;;;;;;71.55;53.50;;;23.00;99.90;;;;;;5032660;28;20120;-74
2022/08/24 07:30:05;;;;;;;65.30;50.78;;;23.20;99.90;;;;;;5002273;28;20038;-74
2022/08/24 07:32:32;;;;;;;62.78;51.90;;;23.30;99.90;;;;;;4993791;28;20128;-74
2022/08/24 07:34:58;;;;;;;66.00;50.33;;;23.40;99.90;;;;;;5032718;28;20041;-74
2022/08/24 07:37:24;;;;;;;59.65;49.35;;;23.50;99.90;;;;;;5016148;28;20046;-74
2022/08/24 07:39:50;;;;;;;56.50;47.03;;;23.60;99.90;;;;;;5014646;28;20049;-74
2022/08/24 07:42:17;;;;;;;56.40;46.97;;;23.70;99.90;;;;;;5031704;28;20037;-74
2022/08/24 07:44:43;;;;;;;48.83;43.40;;;23.80;99.90;;;;;;5016036;28;20043;-74
2022/08/24 07:47:08;;;;;;;47.47;40.50;;;23.80;99.90;;;;;;5031150;28;20110;-74
2022/08/24 07:49:34;;;;;;;47.03;38.13;;;23.90;99.90;;;;;;5013308;28;20474;-74
2022/08/24 07:52:01;;;;;;;43.33;38.25;;;24.10;99.90;;;;;;5031575;28;20045;-74
2022/08/24 07:54:27;;;;;;;38.75;32.03;;;24.20;99.90;;;;;;5046567;28;20034;-74
2022/08/24 07:56:53;;;;;;;41.70;33.38;;;24.30;99.90;;;;;;5015257;28;20084;-74
2022/08/24 07:59:20;;;;;;;35.80;30.73;;;24.40;99.90;;;;;;5027113;28;20069;-74
2022/08/24 08:01:45;;;;;;;33.92;29.60;;;24.50;99.90;;;;;;5031434;28;20083;-74
2022/08/24 08:04:14;;;;;;;36.80;32.50;;;24.60;99.90;;;;;;5031009;28;20072;-74
2022/08/24 08:06:43;;;;;;;41.00;32.38;;;24.70;99.90;;;;;;5015713;28;20136;-74
2022/08/24 08:09:09;;;;;;;34.72;30.42;;;24.70;99.90;;;;;;5012670;28;20099;-74
2022/08/24 08:11:35;;;;;;;35.17;30.33;;;24.90;99.90;;;;;;5015702;28;20056;-74
2022/08/24 08:14:01;;;;;;;37.15;28.95;;;25.00;99.90;;;;;;5032235;28;20390;-74
2022/08/24 08:16:27;;;;;;;28.30;25.25;;;25.00;99.90;;;;;;5017504;28;20034;-74
2022/08/24 08:18:52;;;;;;;31.52;24.20;;;25.10;99.90;;;;;;5025558;28;20041;-74
2022/08/24 08:24:15;;;;;;;28.35;25.35;;;25.40;99.90;;;;;;5031876;28;20425;-74
2022/08/24 08:26:42;;;;;;;24.10;21.50;;;25.50;99.90;;;;;;5032079;28;20045;-74
2022/08/24 08:29:09;;;;;;;18.70;15.90;;;25.70;99.90;;;;;;5013340;28;20108;-74
2022/08/24 08:31:36;;;;;;;18.90;17.00;;;25.80;99.90;;;;;;5022141;28;20047;-74
2022/08/24 08:34:04;;;;;;;17.88;15.93;;;25.90;99.90;;;;;;5031754;28;20073;-74
2022/08/24 08:36:31;;;;;;;20.23;15.32;;;26.00;99.90;;;;;;5031653;28;20128;-74
2022/08/24 08:38:57;;;;;;;17.20;13.80;;;26.00;99.90;;;;;;5015666;28;20076;-74
2022/08/24 08:41:44;;;;;;;14.88;12.50;;;26.10;99.90;;;;;;5015042;28;20080;-74
2022/08/24 08:44:23;;;;;;;19.73;14.68;;;26.30;99.90;;;;;;5014603;28;20478;-74
2022/08/24 08:47:07;;;;;;;14.27;12.77;;;26.40;99.90;;;;;;5012060;28;20072;-74
2022/08/24 08:50:07;;;;;;;13.77;12.32;;;26.50;99.90;;;;;;5029652;28;20041;-74
2022/08/24 08:53:00;;;;;;;12.95;10.75;;;26.70;99.90;;;;;;5013513;28;20398;-74
2022/08/24 08:55:43;;;;;;;10.93;9.48;;;26.90;99.90;;;;;;5015422;28;20041;-74
2022/08/24 08:59:00;;;;;;;14.43;9.80;;;27.00;99.90;;;;;;5031616;28;20409;-74
2022/08/24 09:01:46;;;;;;;11.05;9.95;;;27.10;99.90;;;;;;5014864;28;20045;-74
2022/08/24 09:04:21;;;;;;;12.05;8.57;;;27.20;99.90;;;;;;5041752;28;20601;-74
2022/08/24 09:07:02;;;;;;;7.22;6.10;;;27.20;99.90;;;;;;5030666;28;20049;-73
2022/08/24 09:09:47;;;;;;;8.77;6.63;;;27.30;99.90;;;;;;5014959;28;20037;-74
2022/08/24 09:12:43;;;;;;;10.98;7.47;;;27.40;99.90;;;;;;5031560;28;20041;-74
2022/08/24 09:15:34;;;;;;;9.35;7.53;;;27.50;99.90;;;;;;5030854;28;20038;-74
2022/08/24 09:18:21;;;;;;;10.27;9.25;;;27.60;99.90;;;;;;5031457;28;20514;-74
2022/08/24 09:21:02;;;;;;;11.80;8.65;;;27.60;99.90;;;;;;5031227;28;20053;-74
2022/08/24 09:24:00;;;;;;;9.55;8.63;;;27.80;99.90;;;;;;5031614;28;20041;-74
2022/08/24 09:26:35;;;;;;;11.90;8.40;;;27.90;99.90;;;;;;5010875;28;20097;-74
2022/08/24 09:29:25;;;;;;;9.73;7.93;;;27.80;99.90;;;;;;5031545;28;20037;-73
2022/08/24 09:32:20;;;;;;;8.68;7.28;;;27.90;99.90;;;;;;5031091;28;20045;-74
2022/08/24 09:34:50;;;;;;;11.30;7.20;;;28.10;99.90;;;;;;5028820;28;20045;-73
2022/08/24 09:37:40;;;;;;;9.43;7.57;;;28.30;99.90;;;;;;5017854;28;20489;-74
2022/08/24 09:40:16;;;;;;;10.32;8.50;;;28.50;99.90;;;;;;5031426;28;20041;-74
2022/08/24 09:43:03;;;;;;;11.15;6.90;;;28.60;99.90;;;;;;5034850;28;20394;-74
2022/08/24 09:45:54;;;;;;;7.57;6.78;;;28.70;99.90;;;;;;5034095;28;20116;-74
2022/08/24 09:48:32;;;;;;;8.30;7.35;;;28.70;99.90;;;;;;5034337;28;20033;-74
2022/08/24 09:51:20;;;;;;;8.88;7.32;;;28.90;99.90;;;;;;5034835;28;20049;-73
2022/08/24 09:54:48;;;;;;;13.00;8.88;;;28.90;99.90;;;;;;5034969;28;20084;-74
2022/08/24 09:57:39;;;;;;;9.88;8.77;;;29.00;99.90;;;;;;4976565;28;20042;-74
2022/08/24 10:00:15;;;;;;;8.77;7.88;;;29.10;99.90;;;;;;4961825;28;20081;-74
2022/08/24 10:02:50;;;;;;;12.88;7.80;;;29.20;99.90;;;;;;5002676;28;20133;-74
2022/08/24 10:05:50;;;;;;;11.40;8.77;;;29.30;99.90;;;;;;4998634;28;20505;-74
2022/08/24 10:08:25;;;;;;;10.65;9.65;;;29.30;99.90;;;;;;5015054;28;20038;-74
2022/08/24 10:11:13;;;;;;;10.93;9.40;;;29.30;99.90;;;;;;5014546;28;20395;-74
2022/08/24 10:13:54;;;;;;;10.10;8.32;;;29.50;99.90;;;;;;5014748;28;20053;-74
2022/08/24 10:16:38;;;;;;;13.35;12.13;;;29.60;99.90;;;;;;5047802;28;20044;-74
2022/08/24 10:19:19;;;;;;;11.88;10.45;;;29.80;99.90;;;;;;5014510;28;20386;-74
2022/08/24 10:22:05;;;;;;;12.90;11.52;;;29.70;99.00;;;;;;5030909;28;20038;-74
2022/08/24 10:24:45;;;;;;;13.13;10.90;;;29.70;99.50;;;;;;4998118;28;20042;-74
2022/08/24 10:27:46;;;;;;;11.80;9.88;;;29.80;99.90;;;;;;5038600;28;20037;-74
2022/08/24 10:30:26;;;;;;;;;;;30.00;99.90;;;;;;5051662;28;20048;-74
2022/08/24 10:33:01;;;;;;;11.13;10.13;;;30.00;98.50;;;;;;5035585;28;19927;-74
2022/08/24 10:35:51;;;;;;;11.65;10.07;;;30.20;99.50;;;;;;5052624;28;20049;-74
2022/08/24 10:41:47;;;;;;;13.70;10.20;;;30.30;96.70;;;;;;5034361;28;20505;-74
2022/08/24 10:44:13;;;;;;;11.20;6.78;;;30.40;96.60;;;;;;5042808;28;20080;-74
2022/08/24 10:46:51;;;;;;;9.77;7.75;;;30.50;96.30;;;;;;5035867;28;20090;-74
2022/08/24 10:49:23;;;;;;;9.13;6.32;;;30.50;94.20;;;;;;5032387;28;20048;-74
2022/08/24 10:52:11;;;;;;;7.35;5.30;;;30.60;94.70;;;;;;5034939;28;20041;-73
2022/08/24 10:54:37;;;;;;;7.13;6.43;;;30.80;94.40;;;;;;5040013;28;20507;-73
2022/08/24 10:57:14;;;;;;;8.20;6.40;;;30.60;94.50;;;;;;5024099;28;20521;-74
2022/08/24 10:59:56;;;;;;;6.38;5.57;;;30.80;93.80;;;;;;5034679;28;20041;-74
2022/08/24 11:02:32;;;;;;;6.75;5.82;;;30.80;91.80;;;;;;5029743;28;20536;-74
2022/08/24 11:05:08;;;;;;;7.93;5.50;;;30.90;91.50;;;;;;5032164;28;20048;-74
2022/08/24 11:07:36;;;;;;;7.40;5.50;;;31.10;92.20;;;;;;5014424;28;20053;-74
2022/08/24 11:10:08;;;;;;;6.45;5.65;;;30.80;91.00;;;;;;5023821;28;20116;-74
2022/08/24 11:12:42;;;;;;;8.77;6.30;;;30.80;89.30;;;;;;5031491;28;20053;-74
2022/08/24 11:15:17;;;;;;;11.90;6.97;;;30.70;90.10;;;;;;5033404;28;20132;-74
2022/08/24 11:17:56;;;;;;;7.45;5.93;;;30.80;90.00;;;;;;5033031;28;20051;-74
2022/08/24 11:20:30;;;;;;;5.95;5.40;;;30.90;89.80;;;;;;5016162;28;20069;-74
2022/08/24 11:23:01;;;;;;;7.97;5.80;;;31.10;90.80;;;;;;5031091;28;20055;-74
2022/08/24 11:25:31;;;;;;;6.53;5.32;;;31.40;90.50;;;;;;5032489;28;20073;-73
2022/08/24 11:28:22;;;;;;;7.30;4.85;;;31.60;89.80;;;;;;5031655;28;20037;-74
2022/08/24 11:30:48;;;;;;;8.40;5.05;;;31.90;88.10;;;;;;5014690;28;20064;-74
2022/08/24 11:33:28;;;;;;;7.03;5.65;;;32.00;88.00;;;;;;4999148;28;20458;-74
2022/08/24 11:35:54;;;;;;;6.03;4.93;;;32.00;84.40;;;;;;5015853;28;20041;-74
2022/08/24 11:38:27;;;;;;;7.20;4.63;;;31.60;86.20;;;;;;5033112;28;20049;-74
2022/08/24 11:41:06;;;;;;;4.95;4.20;;;31.40;85.10;;;;;;5008433;28;20096;-74
2022/08/24 11:43:54;;;;;;;4.72;4.30;;;31.80;86.00;;;;;;5032115;28;20048;-73
2022/08/24 11:46:55;;;;;;;4.97;4.20;;;31.80;80.70;;;;;;5032867;28;20041;-74
2022/08/24 11:49:33;;;;;;;4.70;3.58;;;31.60;78.90;;;;;;5026129;28;20064;-74
2022/08/24 11:52:38;;;;;;;5.43;3.70;;;31.90;82.10;;;;;;5032666;28;20042;-74
2022/08/24 11:55:13;;;;;;;3.90;3.08;;;32.30;79.50;;;;;;5042041;28;20045;-74
2022/08/24 11:58:01;;;;;;;5.05;3.42;;;32.50;79.60;;;;;;5032704;28;20048;-74
2022/08/24 12:00:44;;;;;;;7.45;3.60;;;32.40;77.80;;;;;;5016097;28;20041;-74
2022/08/24 12:03:28;;;;;;;3.72;3.40;;;32.50;79.30;;;;;;5030106;28;20095;-74
2022/08/24 12:05:55;;;;;;;3.95;3.65;;;32.40;79.50;;;;;;4996447;28;20049;-74
2022/08/24 12:08:38;;;;;;;4.30;2.95;;;32.40;78.00;;;;;;5013315;28;20045;-74
2022/08/24 12:11:31;;;;;;;4.55;3.80;;;32.40;77.00;;;;;;5031708;28;20047;-74
2022/08/24 12:14:17;;;;;;;8.00;3.80;;;32.50;73.80;;;;;;5014642;28;20108;-74
2022/08/24 12:16:58;;;;;;;3.88;3.45;;;32.70;70.60;;;;;;5048924;28;20041;-74
2022/08/24 12:19:35;;;;;;;5.57;3.40;;;33.00;75.10;;;;;;5047897;28;20037;-74
2022/08/24 12:22:04;;;;;;;4.25;3.10;;;33.40;73.70;;;;;;5015492;28;20049;-74
2022/08/24 12:24:33;;;;;;;5.90;3.45;;;34.10;73.30;;;;;;5030706;28;20534;-74
2022/08/24 12:27:09;;;;;;;5.55;3.53;;;34.10;72.40;;;;;;5031981;28;20042;-74
2022/08/24 12:29:44;;;;;;;5.28;3.30;;;34.60;69.10;;;;;;5015440;28;20080;-74
2022/08/24 12:32:36;;;;;;;4.28;2.63;;;34.40;70.30;;;;;;5031890;28;20053;-74
2022/08/24 12:35:15;;;;;;;5.38;3.38;;;34.50;68.40;;;;;;5021331;28;20042;-74
2022/08/24 12:37:54;;;;;;;5.00;3.00;;;34.10;69.50;;;;;;5031867;28;20208;-74
2022/08/24 12:40:32;;;;;;;5.72;3.20;;;33.70;68.90;;;;;;5032168;28;20056;-74
2022/08/24 12:43:18;;;;;;;4.20;2.95;;;33.50;69.30;;;;;;5030918;28;20045;-75
2022/08/24 12:45:45;;;;;;;4.25;2.95;;;34.00;67.90;;;;;;4958421;28;20075;-74
2022/08/24 12:48:38;;;;;;;3.10;2.80;;;34.50;69.40;;;;;;5015519;28;20119;-74
2022/08/24 12:51:37;;;;;;;3.22;2.92;;;35.20;66.20;;;;;;5031648;28;20103;-74
2022/08/24 12:54:12;;;;;;;3.58;3.30;;;35.60;66.10;;;;;;5015219;28;20363;-75
2022/08/24 12:56:50;;;;;;;6.18;2.97;;;35.20;65.70;;;;;;5011940;28;20045;-74
2022/08/24 12:59:35;;;;;;;5.10;3.15;;;35.50;64.00;;;;;;5027695;28;20523;-74
2022/08/24 13:02:02;;;;;;;3.50;2.50;;;35.50;62.60;;;;;;5044824;28;20116;-75
2022/08/24 13:04:49;;;;;;;2.88;2.67;;;36.20;63.30;;;;;;5015266;28;20203;-75
2022/08/24 13:07:18;;;;;;;7.07;3.13;;;37.00;60.00;;;;;;5031204;28;20042;-75
2022/08/24 13:10:00;;;;;;;3.60;2.97;;;37.20;58.80;;;;;;5027229;28;20050;-75
2022/08/24 13:12:29;;;;;;;4.05;3.03;;;37.60;58.50;;;;;;5031346;28;20049;-75